sensor_id;sensor_type;location;lat;lon;timestamp;temperature;humidity
3478;DHT22;37937;61.490;23.506;2024-02-16T00:00:12;0.00;99.90
3478;DHT22;37937;61.490;23.506;2024-02-16T00:02:38;0.10;99.90
3478;DHT22;37937;61.490;23.506;2024-02-16T00:05:05;0.00;99.90
3478;DHT22;37937;61.490;23.506;2024-02-16T00:07:33;0.10;99.90
3478;DHT22;37937;61.490;23.506;2024-02-16T00:09:58;0.10;99.90
3478;DHT22;37937;61.490;23.506;2024-02-16T00:12:24;0.10;99.90
3478;DHT22;37937;61.490;23.506;2024-02-16T00:14:49;0.10;99.90
3478;DHT22;37937;61.490;23.506;2024-02-16T00:17:15;0.10;99.90
3478;DHT22;37937;61.490;23.506;2024-02-16T00:19:41;0.10;99.90
3478;DHT22;37937;61.490;23.506;2024-02-16T00:22:06;0.00;99.90
3478;DHT22;37937;61.490;23.506;2024-02-16T00:24:35;0.00;99.90
3478;DHT22;37937;61.490;23.506;2024-02-16T00:27:02;0.00;99.90
3478;DHT22;37937;61.490;23.506;2024-02-16T00:29:31;0.00;99.90
3478;DHT22;37937;61.490;23.506;2024-02-16T00:31:57;0.00;99.90
3478;DHT22;37937;61.490;23.506;2024-02-16T00:34:24;0.10;99.90
3478;DHT22;37937;61.490;23.506;2024-02-16T00:36:50;0.00;99.90
3478;DHT22;37937;61.490;23.506;2024-02-16T00:39:15;0.00;99.90
3478;DHT22;37937;61.490;23.506;2024-02-16T00:41:41;0.00;99.90
3478;DHT22;37937;61.490;23.506;2024-02-16T00:44:06;0.00;99.90
3478;DHT22;37937;61.490;23.506;2024-02-16T00:46:33;0.10;99.90
3478;DHT22;37937;61.490;23.506;2024-02-16T00:49:00;0.10;99.90
3478;DHT22;37937;61.490;23.506;2024-02-16T00:51:26;0.10;99.90
3478;DHT22;37937;61.490;23.506;2024-02-16T00:53:51;0.00;99.90
3478;DHT22;37937;61.490;23.506;2024-02-16T00:56:18;0.10;99.90
3478;DHT22;37937;61.490;23.506;2024-02-16T00:58:43;0.10;99.90
3478;DHT22;37937;61.490;23.506;2024-02-16T01:01:09;0.10;99.90
3478;DHT22;37937;61.490;23.506;2024-02-16T01:03:37;0.10;99.90
3478;DHT22;37937;61.490;23.506;2024-02-16T01:06:03;0.10;99.90
3478;DHT22;37937;61.490;23.506;2024-02-16T01:08:28;0.10;99.90
3478;DHT22;37937;61.490;23.506;2024-02-16T01:10:55;0.10;99.90
3478;DHT22;37937;61.490;23.506;2024-02-16T01:13:20;0.10;99.90
3478;DHT22;37937;61.490;23.506;2024-02-16T01:15:46;0.10;99.90
3478;DHT22;37937;61.490;23.506;2024-02-16T01:18:12;0.10;99.90
3478;DHT22;37937;61.490;23.506;2024-02-16T01:20:37;0.10;99.90
3478;DHT22;37937;61.490;23.506;2024-02-16T01:23:03;0.10;99.90
3478;DHT22;37937;61.490;23.506;2024-02-16T01:25:30;0.10;99.90
3478;DHT22;37937;61.490;23.506;2024-02-16T01:27:56;0.10;99.90
3478;DHT22;37937;61.490;23.506;2024-02-16T01:30:22;0.10;99.90
3478;DHT22;37937;61.490;23.506;2024-02-16T01:32:47;0.10;99.90
3478;DHT22;37937;61.490;23.506;2024-02-16T01:35:13;0.10;99.90
3478;DHT22;37937;61.490;23.506;2024-02-16T01:37:40;0.10;99.90
3478;DHT22;37937;61.490;23.506;2024-02-16T01:40:06;0.10;99.90
3478;DHT22;37937;61.490;23.506;2024-02-16T01:42:33;0.10;99.90
3478;DHT22;37937;61.490;23.506;2024-02-16T01:44:58;0.10;99.90
3478;DHT22;37937;61.490;23.506;2024-02-16T01:47:24;0.10;99.90
3478;DHT22;37937;61.490;23.506;2024-02-16T01:49:49;0.10;99.90
3478;DHT22;37937;61.490;23.506;2024-02-16T01:52:15;0.10;99.90
3478;DHT22;37937;61.490;23.506;2024-02-16T01:54:40;0.10;99.90
3478;DHT22;37937;61.490;23.506;2024-02-16T01:57:06;0.10;99.90
3478;DHT22;37937;61.490;23.506;2024-02-16T01:59:32;0.10;99.90
3478;DHT22;37937;61.490;23.506;2024-02-16T02:01:59;0.10;99.90
3478;DHT22;37937;61.490;23.506;2024-02-16T02:04:25;0.10;99.90
3478;DHT22;37937;61.490;23.506;2024-02-16T02:06:50;0.10;99.90
3478;DHT22;37937;61.490;23.506;2024-02-16T02:09:16;0.10;99.90
3478;DHT22;37937;61.490;23.506;2024-02-16T02:11:42;0.10;99.90
3478;DHT22;37937;61.490;23.506;2024-02-16T02:14:07;0.10;99.90
3478;DHT22;37937;61.490;23.506;2024-02-16T02:16:33;0.10;99.90
3478;DHT22;37937;61.490;23.506;2024-02-16T02:18:58;0.00;99.90
3478;DHT22;37937;61.490;23.506;2024-02-16T02:21:24;0.20;99.90
3478;DHT22;37937;61.490;23.506;2024-02-16T02:23:49;0.20;99.90
3478;DHT22;37937;61.490;23.506;2024-02-16T02:26:15;0.20;99.90
3478;DHT22;37937;61.490;23.506;2024-02-16T02:28:42;0.20;99.90
3478;DHT22;37937;61.490;23.506;2024-02-16T02:31:07;0.20;99.90
3478;DHT22;37937;61.490;23.506;2024-02-16T02:33:34;0.20;99.90
3478;DHT22;37937;61.490;23.506;2024-02-16T02:35:59;0.20;99.90
3478;DHT22;37937;61.490;23.506;2024-02-16T02:38:25;0.20;99.90
3478;DHT22;37937;61.490;23.506;2024-02-16T02:40:51;0.20;99.90
3478;DHT22;37937;61.490;23.506;2024-02-16T02:43:17;0.20;99.90
3478;DHT22;37937;61.490;23.506;2024-02-16T02:45:44;0.20;99.90
3478;DHT22;37937;61.490;23.506;2024-02-16T02:48:09;0.20;99.90
3478;DHT22;37937;61.490;23.506;2024-02-16T02:50:35;0.20;99.90
3478;DHT22;37937;61.490;23.506;2024-02-16T02:53:00;0.20;99.90
3478;DHT22;37937;61.490;23.506;2024-02-16T02:55:26;0.20;99.90
3478;DHT22;37937;61.490;23.506;2024-02-16T02:57:52;0.20;99.90
3478;DHT22;37937;61.490;23.506;2024-02-16T03:00:17;0.20;99.90
3478;DHT22;37937;61.490;23.506;2024-02-16T03:02:43;0.20;99.90
3478;DHT22;37937;61.490;23.506;2024-02-16T03:05:12;0.20;99.90
3478;DHT22;37937;61.490;23.506;2024-02-16T03:07:37;0.20;99.90
3478;DHT22;37937;61.490;23.506;2024-02-16T03:10:03;0.20;99.90
3478;DHT22;37937;61.490;23.506;2024-02-16T03:12:29;0.20;99.90
3478;DHT22;37937;61.490;23.506;2024-02-16T03:14:55;0.20;99.90
3478;DHT22;37937;61.490;23.506;2024-02-16T03:17:21;0.20;99.90
3478;DHT22;37937;61.490;23.506;2024-02-16T03:19:46;0.20;99.90
3478;DHT22;37937;61.490;23.506;2024-02-16T03:22:12;0.20;99.90
3478;DHT22;37937;61.490;23.506;2024-02-16T03:24:38;0.20;99.90
3478;DHT22;37937;61.490;23.506;2024-02-16T03:27:03;0.20;99.90
3478;DHT22;37937;61.490;23.506;2024-02-16T03:29:29;0.20;99.90
3478;DHT22;37937;61.490;23.506;2024-02-16T03:31:54;0.20;99.90
3478;DHT22;37937;61.490;23.506;2024-02-16T03:34:20;0.20;99.90
3478;DHT22;37937;61.490;23.506;2024-02-16T03:36:45;0.20;99.90
3478;DHT22;37937;61.490;23.506;2024-02-16T03:39:11;0.20;99.90
3478;DHT22;37937;61.490;23.506;2024-02-16T03:41:37;0.20;99.90
3478;DHT22;37937;61.490;23.506;2024-02-16T03:44:02;0.20;99.90
3478;DHT22;37937;61.490;23.506;2024-02-16T03:46:28;0.30;99.90
3478;DHT22;37937;61.490;23.506;2024-02-16T03:48:53;0.20;99.90
3478;DHT22;37937;61.490;23.506;2024-02-16T03:51:19;0.20;99.90
3478;DHT22;37937;61.490;23.506;2024-02-16T03:53:45;0.20;99.90
3478;DHT22;37937;61.490;23.506;2024-02-16T03:56:11;0.20;99.90
3478;DHT22;37937;61.490;23.506;2024-02-16T03:58:37;0.20;99.90
3478;DHT22;37937;61.490;23.506;2024-02-16T04:01:03;0.20;99.90
3478;DHT22;37937;61.490;23.506;2024-02-16T04:03:28;0.20;99.90
3478;DHT22;37937;61.490;23.506;2024-02-16T04:05:54;0.20;99.90
3478;DHT22;37937;61.490;23.506;2024-02-16T04:08:19;0.20;99.90
3478;DHT22;37937;61.490;23.506;2024-02-16T04:10:45;0.20;99.90
3478;DHT22;37937;61.490;23.506;2024-02-16T04:13:11;0.20;99.90
3478;DHT22;37937;61.490;23.506;2024-02-16T04:15:36;0.20;99.90
3478;DHT22;37937;61.490;23.506;2024-02-16T04:18:03;0.20;99.90
3478;DHT22;37937;61.490;23.506;2024-02-16T04:20:29;0.20;99.90
3478;DHT22;37937;61.490;23.506;2024-02-16T04:22:55;0.20;99.90
3478;DHT22;37937;61.490;23.506;2024-02-16T04:25:20;0.20;99.90
3478;DHT22;37937;61.490;23.506;2024-02-16T04:27:46;0.30;99.90
3478;DHT22;37937;61.490;23.506;2024-02-16T04:30:11;0.20;99.90
3478;DHT22;37937;61.490;23.506;2024-02-16T04:32:37;0.30;99.90
3478;DHT22;37937;61.490;23.506;2024-02-16T04:35:02;0.30;99.90
3478;DHT22;37937;61.490;23.506;2024-02-16T04:37:29;0.30;99.90
3478;DHT22;37937;61.490;23.506;2024-02-16T04:39:54;0.30;99.90
3478;DHT22;37937;61.490;23.506;2024-02-16T04:42:20;0.30;99.90
3478;DHT22;37937;61.490;23.506;2024-02-16T04:44:45;0.30;99.90
3478;DHT22;37937;61.490;23.506;2024-02-16T04:47:11;0.30;99.90
3478;DHT22;37937;61.490;23.506;2024-02-16T04:49:37;0.20;99.90
3478;DHT22;37937;61.490;23.506;2024-02-16T04:52:03;0.30;99.90
3478;DHT22;37937;61.490;23.506;2024-02-16T04:54:29;0.30;99.90
3478;DHT22;37937;61.490;23.506;2024-02-16T04:56:55;0.40;99.90
3478;DHT22;37937;61.490;23.506;2024-02-16T04:59:20;0.30;99.90
3478;DHT22;37937;61.490;23.506;2024-02-16T05:01:46;0.20;99.90
3478;DHT22;37937;61.490;23.506;2024-02-16T05:04:12;0.30;99.90
3478;DHT22;37937;61.490;23.506;2024-02-16T05:06:44;0.30;99.90
3478;DHT22;37937;61.490;23.506;2024-02-16T05:09:12;0.30;99.90
3478;DHT22;37937;61.490;23.506;2024-02-16T05:11:42;0.30;99.90
3478;DHT22;37937;61.490;23.506;2024-02-16T05:14:08;0.30;99.90
3478;DHT22;37937;61.490;23.506;2024-02-16T05:16:33;0.30;99.90
3478;DHT22;37937;61.490;23.506;2024-02-16T05:18:59;0.20;99.90
3478;DHT22;37937;61.490;23.506;2024-02-16T05:21:24;0.20;99.90
3478;DHT22;37937;61.490;23.506;2024-02-16T05:23:50;0.20;99.90
3478;DHT22;37937;61.490;23.506;2024-02-16T05:26:15;0.20;99.90
3478;DHT22;37937;61.490;23.506;2024-02-16T05:28:41;0.20;99.90
3478;DHT22;37937;61.490;23.506;2024-02-16T05:31:13;0.20;99.90
3478;DHT22;37937;61.490;23.506;2024-02-16T05:33:41;0.20;99.90
3478;DHT22;37937;61.490;23.506;2024-02-16T05:36:06;0.20;99.90
3478;DHT22;37937;61.490;23.506;2024-02-16T05:38:32;0.20;99.90
3478;DHT22;37937;61.490;23.506;2024-02-16T05:41:00;0.20;99.90
3478;DHT22;37937;61.490;23.506;2024-02-16T05:43:26;0.20;99.90
3478;DHT22;37937;61.490;23.506;2024-02-16T05:45:52;0.20;99.90
3478;DHT22;37937;61.490;23.506;2024-02-16T05:48:17;0.20;99.90
3478;DHT22;37937;61.490;23.506;2024-02-16T05:50:43;0.20;99.90
3478;DHT22;37937;61.490;23.506;2024-02-16T05:53:09;0.20;99.90
3478;DHT22;37937;61.490;23.506;2024-02-16T05:55:36;0.20;99.90
3478;DHT22;37937;61.490;23.506;2024-02-16T05:58:01;0.20;99.90
3478;DHT22;37937;61.490;23.506;2024-02-16T06:00:27;0.20;99.90
3478;DHT22;37937;61.490;23.506;2024-02-16T06:02:52;0.20;99.90
3478;DHT22;37937;61.490;23.506;2024-02-16T06:05:18;0.20;99.90
3478;DHT22;37937;61.490;23.506;2024-02-16T06:07:45;0.20;99.90
3478;DHT22;37937;61.490;23.506;2024-02-16T06:10:11;0.20;99.90
3478;DHT22;37937;61.490;23.506;2024-02-16T06:12:37;0.20;99.90
3478;DHT22;37937;61.490;23.506;2024-02-16T06:15:04;0.20;99.90
3478;DHT22;37937;61.490;23.506;2024-02-16T06:17:29;0.30;99.90
3478;DHT22;37937;61.490;23.506;2024-02-16T06:19:55;0.20;99.90
3478;DHT22;37937;61.490;23.506;2024-02-16T06:22:20;0.30;99.90
3478;DHT22;37937;61.490;23.506;2024-02-16T06:24:46;0.30;99.90
3478;DHT22;37937;61.490;23.506;2024-02-16T06:27:12;0.30;99.90
3478;DHT22;37937;61.490;23.506;2024-02-16T06:29:37;0.20;99.90
3478;DHT22;37937;61.490;23.506;2024-02-16T06:32:03;0.30;99.90
3478;DHT22;37937;61.490;23.506;2024-02-16T06:34:29;0.30;99.90
3478;DHT22;37937;61.490;23.506;2024-02-16T06:36:55;0.20;99.90
3478;DHT22;37937;61.490;23.506;2024-02-16T06:39:21;0.30;99.90
3478;DHT22;37937;61.490;23.506;2024-02-16T06:41:47;0.30;99.90
3478;DHT22;37937;61.490;23.506;2024-02-16T06:44:13;0.30;99.90
3478;DHT22;37937;61.490;23.506;2024-02-16T06:46:39;0.30;99.90
3478;DHT22;37937;61.490;23.506;2024-02-16T06:49:05;0.20;99.90
3478;DHT22;37937;61.490;23.506;2024-02-16T06:51:31;0.30;99.90
3478;DHT22;37937;61.490;23.506;2024-02-16T06:53:56;0.30;99.90
3478;DHT22;37937;61.490;23.506;2024-02-16T06:56:22;0.20;99.90
3478;DHT22;37937;61.490;23.506;2024-02-16T06:58:48;0.30;99.90
3478;DHT22;37937;61.490;23.506;2024-02-16T07:01:14;0.30;99.90
3478;DHT22;37937;61.490;23.506;2024-02-16T07:03:40;0.30;99.90
3478;DHT22;37937;61.490;23.506;2024-02-16T07:06:05;0.30;99.90
3478;DHT22;37937;61.490;23.506;2024-02-16T07:08:38;0.30;99.90
3478;DHT22;37937;61.490;23.506;2024-02-16T07:11:04;0.30;99.90
3478;DHT22;37937;61.490;23.506;2024-02-16T07:13:31;0.30;99.90
3478;DHT22;37937;61.490;23.506;2024-02-16T07:15:56;0.30;99.90
3478;DHT22;37937;61.490;23.506;2024-02-16T07:18:22;0.30;99.90
3478;DHT22;37937;61.490;23.506;2024-02-16T07:20:48;0.30;99.90
3478;DHT22;37937;61.490;23.506;2024-02-16T07:23:13;0.30;99.90
3478;DHT22;37937;61.490;23.506;2024-02-16T07:25:41;0.30;99.90
3478;DHT22;37937;61.490;23.506;2024-02-16T07:28:07;0.30;99.90
3478;DHT22;37937;61.490;23.506;2024-02-16T07:30:33;0.30;99.90
3478;DHT22;37937;61.490;23.506;2024-02-16T07:32:59;0.30;99.90
3478;DHT22;37937;61.490;23.506;2024-02-16T07:35:25;0.30;99.90
3478;DHT22;37937;61.490;23.506;2024-02-16T07:37:50;0.30;99.90
3478;DHT22;37937;61.490;23.506;2024-02-16T07:40:19;0.30;99.90
3478;DHT22;37937;61.490;23.506;2024-02-16T07:42:45;0.30;99.90
3478;DHT22;37937;61.490;23.506;2024-02-16T07:45:11;0.30;99.90
3478;DHT22;37937;61.490;23.506;2024-02-16T07:47:40;0.40;99.90
3478;DHT22;37937;61.490;23.506;2024-02-16T07:50:06;0.40;99.90
3478;DHT22;37937;61.490;23.506;2024-02-16T07:52:31;0.30;99.90
3478;DHT22;37937;61.490;23.506;2024-02-16T07:54:57;0.40;99.90
3478;DHT22;37937;61.490;23.506;2024-02-16T07:57:23;0.40;99.90
3478;DHT22;37937;61.490;23.506;2024-02-16T07:59:49;0.40;99.90
3478;DHT22;37937;61.490;23.506;2024-02-16T08:02:15;0.40;99.90
3478;DHT22;37937;61.490;23.506;2024-02-16T08:04:41;0.40;99.90
3478;DHT22;37937;61.490;23.506;2024-02-16T08:07:07;0.40;99.90
3478;DHT22;37937;61.490;23.506;2024-02-16T08:09:33;0.40;99.90
3478;DHT22;37937;61.490;23.506;2024-02-16T08:11:59;0.40;99.90
3478;DHT22;37937;61.490;23.506;2024-02-16T08:14:25;0.40;99.90
3478;DHT22;37937;61.490;23.506;2024-02-16T08:16:50;0.40;99.90
3478;DHT22;37937;61.490;23.506;2024-02-16T08:19:16;0.40;99.90
3478;DHT22;37937;61.490;23.506;2024-02-16T08:21:41;0.40;99.90
3478;DHT22;37937;61.490;23.506;2024-02-16T08:24:07;0.40;99.90
3478;DHT22;37937;61.490;23.506;2024-02-16T08:26:33;0.40;99.90
3478;DHT22;37937;61.490;23.506;2024-02-16T08:28:58;0.40;99.90
3478;DHT22;37937;61.490;23.506;2024-02-16T08:31:24;0.50;99.90
3478;DHT22;37937;61.490;23.506;2024-02-16T08:33:50;0.50;99.90
3478;DHT22;37937;61.490;23.506;2024-02-16T08:36:16;0.40;99.90
3478;DHT22;37937;61.490;23.506;2024-02-16T08:38:41;0.50;99.90
3478;DHT22;37937;61.490;23.506;2024-02-16T08:41:07;0.40;99.90
3478;DHT22;37937;61.490;23.506;2024-02-16T08:43:32;0.40;99.90
3478;DHT22;37937;61.490;23.506;2024-02-16T08:45:58;0.40;99.90
3478;DHT22;37937;61.490;23.506;2024-02-16T08:48:26;0.40;99.90
3478;DHT22;37937;61.490;23.506;2024-02-16T08:50:52;0.40;99.90
3478;DHT22;37937;61.490;23.506;2024-02-16T08:53:17;0.40;99.90
3478;DHT22;37937;61.490;23.506;2024-02-16T08:55:43;0.40;99.90
3478;DHT22;37937;61.490;23.506;2024-02-16T08:58:08;0.50;99.90
3478;DHT22;37937;61.490;23.506;2024-02-16T09:00:34;0.40;99.90
3478;DHT22;37937;61.490;23.506;2024-02-16T09:03:00;0.40;99.90
3478;DHT22;37937;61.490;23.506;2024-02-16T09:05:28;0.50;99.90
3478;DHT22;37937;61.490;23.506;2024-02-16T09:07:53;0.40;99.90
3478;DHT22;37937;61.490;23.506;2024-02-16T09:10:19;0.40;99.90
3478;DHT22;37937;61.490;23.506;2024-02-16T09:12:44;0.40;99.90
3478;DHT22;37937;61.490;23.506;2024-02-16T09:15:10;0.40;99.90
3478;DHT22;37937;61.490;23.506;2024-02-16T09:17:37;0.40;99.90
3478;DHT22;37937;61.490;23.506;2024-02-16T09:20:02;0.50;99.90
3478;DHT22;37937;61.490;23.506;2024-02-16T09:22:29;0.50;99.90
3478;DHT22;37937;61.490;23.506;2024-02-16T09:24:55;0.50;99.90
3478;DHT22;37937;61.490;23.506;2024-02-16T09:27:25;0.50;99.90
3478;DHT22;37937;61.490;23.506;2024-02-16T09:29:50;0.50;99.90
3478;DHT22;37937;61.490;23.506;2024-02-16T09:32:16;0.50;99.90
3478;DHT22;37937;61.490;23.506;2024-02-16T09:34:41;0.50;99.90
3478;DHT22;37937;61.490;23.506;2024-02-16T09:37:07;0.50;99.90
3478;DHT22;37937;61.490;23.506;2024-02-16T09:39:32;0.50;99.90
3478;DHT22;37937;61.490;23.506;2024-02-16T09:41:59;0.50;99.90
3478;DHT22;37937;61.490;23.506;2024-02-16T09:44:25;0.50;99.90
3478;DHT22;37937;61.490;23.506;2024-02-16T09:46:52;0.50;99.90
3478;DHT22;37937;61.490;23.506;2024-02-16T09:49:19;0.50;99.90
3478;DHT22;37937;61.490;23.506;2024-02-16T09:51:44;0.50;99.90
3478;DHT22;37937;61.490;23.506;2024-02-16T09:54:10;0.40;99.90
3478;DHT22;37937;61.490;23.506;2024-02-16T09:56:37;0.40;99.90
3478;DHT22;37937;61.490;23.506;2024-02-16T09:59:02;0.40;99.90
3478;DHT22;37937;61.490;23.506;2024-02-16T10:01:28;0.40;99.90
3478;DHT22;37937;61.490;23.506;2024-02-16T10:03:54;0.40;99.90
3478;DHT22;37937;61.490;23.506;2024-02-16T10:06:19;0.40;99.90
3478;DHT22;37937;61.490;23.506;2024-02-16T10:08:51;0.40;99.90
3478;DHT22;37937;61.490;23.506;2024-02-16T10:11:17;0.40;99.90
3478;DHT22;37937;61.490;23.506;2024-02-16T10:13:57;0.40;99.90
3478;DHT22;37937;61.490;23.506;2024-02-16T10:16:23;0.40;99.90
3478;DHT22;37937;61.490;23.506;2024-02-16T10:18:48;0.30;99.90
3478;DHT22;37937;61.490;23.506;2024-02-16T10:21:23;0.30;99.90
3478;DHT22;37937;61.490;23.506;2024-02-16T10:26:30;0.40;99.90
3478;DHT22;37937;61.490;23.506;2024-02-16T10:28:56;0.30;99.90
3478;DHT22;37937;61.490;23.506;2024-02-16T10:31:23;0.30;99.90
3478;DHT22;37937;61.490;23.506;2024-02-16T10:33:55;0.30;99.90
3478;DHT22;37937;61.490;23.506;2024-02-16T10:36:21;0.30;99.90
3478;DHT22;37937;61.490;23.506;2024-02-16T10:38:47;0.30;99.90
3478;DHT22;37937;61.490;23.506;2024-02-16T10:41:14;0.30;99.90
3478;DHT22;37937;61.490;23.506;2024-02-16T10:43:40;0.30;99.90
3478;DHT22;37937;61.490;23.506;2024-02-16T10:46:05;0.30;99.90
3478;DHT22;37937;61.490;23.506;2024-02-16T10:48:31;0.30;99.90
3478;DHT22;37937;61.490;23.506;2024-02-16T10:50:57;0.30;99.90
3478;DHT22;37937;61.490;23.506;2024-02-16T10:53:26;0.30;99.90
3478;DHT22;37937;61.490;23.506;2024-02-16T10:55:57;0.30;99.90
3478;DHT22;37937;61.490;23.506;2024-02-16T10:58:22;0.30;99.90
3478;DHT22;37937;61.490;23.506;2024-02-16T11:00:49;0.30;99.90
3478;DHT22;37937;61.490;23.506;2024-02-16T11:03:16;0.30;99.90
3478;DHT22;37937;61.490;23.506;2024-02-16T11:05:41;0.30;99.90
3478;DHT22;37937;61.490;23.506;2024-02-16T11:08:17;0.20;99.90
3478;DHT22;37937;61.490;23.506;2024-02-16T11:11:02;0.20;99.90
3478;DHT22;37937;61.490;23.506;2024-02-16T11:13:34;0.20;99.90
3478;DHT22;37937;61.490;23.506;2024-02-16T11:16:06;0.20;99.90
3478;DHT22;37937;61.490;23.506;2024-02-16T11:18:32;0.10;99.90
3478;DHT22;37937;61.490;23.506;2024-02-16T11:21:01;0.10;99.90
3478;DHT22;37937;61.490;23.506;2024-02-16T11:23:27;0.10;99.90
3478;DHT22;37937;61.490;23.506;2024-02-16T11:25:58;0.20;99.90
3478;DHT22;37937;61.490;23.506;2024-02-16T11:28:25;0.20;99.90
3478;DHT22;37937;61.490;23.506;2024-02-16T11:30:51;0.10;99.90
3478;DHT22;37937;61.490;23.506;2024-02-16T11:33:17;0.10;99.90
3478;DHT22;37937;61.490;23.506;2024-02-16T11:35:51;0.10;99.90
3478;DHT22;37937;61.490;23.506;2024-02-16T11:38:17;0.10;99.90
3478;DHT22;37937;61.490;23.506;2024-02-16T11:40:52;0.00;99.90
3478;DHT22;37937;61.490;23.506;2024-02-16T11:43:21;0.00;99.90
3478;DHT22;37937;61.490;23.506;2024-02-16T11:45:47;0.00;99.90
3478;DHT22;37937;61.490;23.506;2024-02-16T11:48:13;0.00;99.90
3478;DHT22;37937;61.490;23.506;2024-02-16T11:50:44;0.00;99.90
3478;DHT22;37937;61.490;23.506;2024-02-16T11:53:09;-0.10;99.90
3478;DHT22;37937;61.490;23.506;2024-02-16T11:55:35;-0.10;99.90
3478;DHT22;37937;61.490;23.506;2024-02-16T11:58:00;-0.10;99.90
3478;DHT22;37937;61.490;23.506;2024-02-16T12:00:26;-0.20;99.90
3478;DHT22;37937;61.490;23.506;2024-02-16T12:02:58;-0.20;99.90
3478;DHT22;37937;61.490;23.506;2024-02-16T12:05:24;-0.20;99.90
3478;DHT22;37937;61.490;23.506;2024-02-16T12:07:49;-0.20;99.90
3478;DHT22;37937;61.490;23.506;2024-02-16T12:10:15;-0.20;99.90
3478;DHT22;37937;61.490;23.506;2024-02-16T12:12:41;-0.20;99.90
3478;DHT22;37937;61.490;23.506;2024-02-16T12:15:07;-0.20;99.90
3478;DHT22;37937;61.490;23.506;2024-02-16T12:17:33;-0.30;99.90
3478;DHT22;37937;61.490;23.506;2024-02-16T12:19:58;-0.30;99.90
3478;DHT22;37937;61.490;23.506;2024-02-16T12:22:24;-0.30;99.90
3478;DHT22;37937;61.490;23.506;2024-02-16T12:24:50;-0.30;99.90
3478;DHT22;37937;61.490;23.506;2024-02-16T12:27:15;-0.30;99.90
3478;DHT22;37937;61.490;23.506;2024-02-16T12:29:41;-0.40;99.90
3478;DHT22;37937;61.490;23.506;2024-02-16T12:32:07;-0.30;99.90
3478;DHT22;37937;61.490;23.506;2024-02-16T12:34:35;-0.40;99.90
3478;DHT22;37937;61.490;23.506;2024-02-16T12:37:04;-0.40;99.90
3478;DHT22;37937;61.490;23.506;2024-02-16T12:39:29;-0.40;99.90
3478;DHT22;37937;61.490;23.506;2024-02-16T12:41:55;-0.40;99.90
3478;DHT22;37937;61.490;23.506;2024-02-16T12:44:20;-0.40;99.90
3478;DHT22;37937;61.490;23.506;2024-02-16T12:46:47;-0.40;99.90
3478;DHT22;37937;61.490;23.506;2024-02-16T12:49:12;-0.50;99.90
3478;DHT22;37937;61.490;23.506;2024-02-16T12:51:38;-0.50;99.90
3478;DHT22;37937;61.490;23.506;2024-02-16T12:54:03;-0.40;99.90
3478;DHT22;37937;61.490;23.506;2024-02-16T12:56:30;-0.40;99.90
3478;DHT22;37937;61.490;23.506;2024-02-16T12:58:56;-0.40;99.90
3478;DHT22;37937;61.490;23.506;2024-02-16T13:01:22;-0.40;99.90
3478;DHT22;37937;61.490;23.506;2024-02-16T13:03:48;-0.40;99.90
3478;DHT22;37937;61.490;23.506;2024-02-16T13:06:13;-0.30;99.90
3478;DHT22;37937;61.490;23.506;2024-02-16T13:08:39;-0.30;99.90
3478;DHT22;37937;61.490;23.506;2024-02-16T13:11:04;-0.30;99.90
3478;DHT22;37937;61.490;23.506;2024-02-16T13:13:30;-0.30;99.90
3478;DHT22;37937;61.490;23.506;2024-02-16T13:15:57;-0.30;99.90
3478;DHT22;37937;61.490;23.506;2024-02-16T13:18:24;-0.30;99.90
3478;DHT22;37937;61.490;23.506;2024-02-16T13:20:50;-0.30;99.90
3478;DHT22;37937;61.490;23.506;2024-02-16T13:23:15;-0.30;99.90
3478;DHT22;37937;61.490;23.506;2024-02-16T13:25:41;-0.30;99.90
3478;DHT22;37937;61.490;23.506;2024-02-16T13:28:06;-0.30;99.90
3478;DHT22;37937;61.490;23.506;2024-02-16T13:30:32;-0.20;99.90
3478;DHT22;37937;61.490;23.506;2024-02-16T13:32:57;-0.20;99.90
3478;DHT22;37937;61.490;23.506;2024-02-16T13:35:23;-0.30;99.90
3478;DHT22;37937;61.490;23.506;2024-02-16T13:37:48;-0.20;99.90
3478;DHT22;37937;61.490;23.506;2024-02-16T13:40:14;-0.20;99.90
3478;DHT22;37937;61.490;23.506;2024-02-16T13:42:40;-0.30;99.90
3478;DHT22;37937;61.490;23.506;2024-02-16T13:45:06;-0.20;99.90
3478;DHT22;37937;61.490;23.506;2024-02-16T13:47:32;-0.30;99.90
3478;DHT22;37937;61.490;23.506;2024-02-16T13:49:57;-0.20;99.90
3478;DHT22;37937;61.490;23.506;2024-02-16T13:52:24;-0.20;99.90
3478;DHT22;37937;61.490;23.506;2024-02-16T13:54:50;-0.20;99.90
3478;DHT22;37937;61.490;23.506;2024-02-16T13:57:15;-0.20;99.90
3478;DHT22;37937;61.490;23.506;2024-02-16T13:59:42;-0.10;99.90
3478;DHT22;37937;61.490;23.506;2024-02-16T14:02:07;-0.20;99.90
3478;DHT22;37937;61.490;23.506;2024-02-16T14:04:33;-0.20;99.90
3478;DHT22;37937;61.490;23.506;2024-02-16T14:06:59;-0.10;99.90
3478;DHT22;37937;61.490;23.506;2024-02-16T14:09:24;-0.10;99.90
3478;DHT22;37937;61.490;23.506;2024-02-16T14:11:51;-0.10;99.90
3478;DHT22;37937;61.490;23.506;2024-02-16T14:14:19;-0.10;99.90
3478;DHT22;37937;61.490;23.506;2024-02-16T14:16:44;-0.10;99.90
3478;DHT22;37937;61.490;23.506;2024-02-16T14:19:10;0.00;99.90
3478;DHT22;37937;61.490;23.506;2024-02-16T14:21:36;0.00;99.90
3478;DHT22;37937;61.490;23.506;2024-02-16T14:24:02;0.00;99.90
3478;DHT22;37937;61.490;23.506;2024-02-16T14:26:27;0.00;99.90
3478;DHT22;37937;61.490;23.506;2024-02-16T14:28:53;0.00;99.90
3478;DHT22;37937;61.490;23.506;2024-02-16T14:31:20;0.00;99.90
3478;DHT22;37937;61.490;23.506;2024-02-16T14:33:47;0.10;99.90
3478;DHT22;37937;61.490;23.506;2024-02-16T14:36:12;0.10;99.90
3478;DHT22;37937;61.490;23.506;2024-02-16T14:38:38;0.10;99.90
3478;DHT22;37937;61.490;23.506;2024-02-16T14:41:05;0.10;99.90
3478;DHT22;37937;61.490;23.506;2024-02-16T14:43:34;0.10;99.90
3478;DHT22;37937;61.490;23.506;2024-02-16T14:46:00;0.10;99.90
3478;DHT22;37937;61.490;23.506;2024-02-16T14:48:25;0.10;99.90
3478;DHT22;37937;61.490;23.506;2024-02-16T14:50:51;0.10;99.90
3478;DHT22;37937;61.490;23.506;2024-02-16T14:53:21;0.10;99.90
3478;DHT22;37937;61.490;23.506;2024-02-16T14:55:47;0.10;99.90
3478;DHT22;37937;61.490;23.506;2024-02-16T14:58:12;0.10;99.90
3478;DHT22;37937;61.490;23.506;2024-02-16T15:00:38;0.20;99.90
3478;DHT22;37937;61.490;23.506;2024-02-16T15:03:04;0.20;99.90
3478;DHT22;37937;61.490;23.506;2024-02-16T15:05:30;0.20;99.90
3478;DHT22;37937;61.490;23.506;2024-02-16T15:07:55;0.20;99.90
3478;DHT22;37937;61.490;23.506;2024-02-16T15:10:21;0.20;99.90
3478;DHT22;37937;61.490;23.506;2024-02-16T15:12:46;0.20;99.90
3478;DHT22;37937;61.490;23.506;2024-02-16T15:15:12;0.20;99.90
3478;DHT22;37937;61.490;23.506;2024-02-16T15:17:38;0.20;99.90
3478;DHT22;37937;61.490;23.506;2024-02-16T15:20:05;0.20;99.90
3478;DHT22;37937;61.490;23.506;2024-02-16T15:22:32;0.20;99.90
3478;DHT22;37937;61.490;23.506;2024-02-16T15:24:57;0.20;99.90
3478;DHT22;37937;61.490;23.506;2024-02-16T15:27:23;0.30;99.90
3478;DHT22;37937;61.490;23.506;2024-02-16T15:29:48;0.30;99.90
3478;DHT22;37937;61.490;23.506;2024-02-16T15:32:15;0.30;99.90
3478;DHT22;37937;61.490;23.506;2024-02-16T15:34:40;0.10;99.90
3478;DHT22;37937;61.490;23.506;2024-02-16T15:37:10;0.30;99.90
3478;DHT22;37937;61.490;23.506;2024-02-16T15:39:36;0.30;99.90